sensor_id;sensor_type;location;lat;lon;timestamp;pressure;altitude;pressure_sealevel;temperature;humidity
59757;BME280;45631;51.962;5.974;2024-03-08T00:00:39;68616.34;;;2.08;100.00
59757;BME280;45631;51.962;5.974;2024-03-08T00:03:10;68610.28;;;2.05;100.00
59757;BME280;45631;51.962;5.974;2024-03-08T00:05:39;68604.81;;;2.02;100.00
59757;BME280;45631;51.962;5.974;2024-03-08T00:08:08;68603.09;;;2.00;100.00
59757;BME280;45631;51.962;5.974;2024-03-08T00:10:40;68607.06;;;1.99;100.00
59757;BME280;45631;51.962;5.974;2024-03-08T00:13:08;68594.97;;;1.93;100.00
59757;BME280;45631;51.962;5.974;2024-03-08T00:15:39;68600.94;;;1.92;100.00
59757;BME280;45631;51.962;5.974;2024-03-08T00:18:08;68594.91;;;1.89;100.00
59757;BME280;45631;51.962;5.974;2024-03-08T00:20:39;68592.56;;;1.86;100.00
59757;BME280;45631;51.962;5.974;2024-03-08T00:23:11;68584.78;;;1.82;100.00
59757;BME280;45631;51.962;5.974;2024-03-08T00:25:39;68585.63;;;1.80;100.00
59757;BME280;45631;51.962;5.974;2024-03-08T00:28:08;68583.31;;;1.78;100.00
59757;BME280;45631;51.962;5.974;2024-03-08T00:30:42;68581.31;;;1.79;100.00
59757;BME280;45631;51.962;5.974;2024-03-08T00:33:12;68573.53;;;1.74;100.00
59757;BME280;45631;51.962;5.974;2024-03-08T00:35:42;68575.84;;;1.76;100.00
59757;BME280;45631;51.962;5.974;2024-03-08T00:38:10;68570.63;;;1.72;100.00
59757;BME280;45631;51.962;5.974;2024-03-08T00:40:40;68575.78;;;1.72;100.00
59757;BME280;45631;51.962;5.974;2024-03-08T00:43:08;68572.88;;;1.69;100.00
59757;BME280;45631;51.962;5.974;2024-03-08T00:45:37;68567.09;;;1.64;100.00
59757;BME280;45631;51.962;5.974;2024-03-08T00:48:06;68565.38;;;1.62;100.00
59757;BME280;45631;51.962;5.974;2024-03-08T00:50:35;68563.03;;;1.60;100.00
59757;BME280;45631;51.962;5.974;2024-03-08T00:53:05;68557.88;;;1.60;100.00
59757;BME280;45631;51.962;5.974;2024-03-08T00:55:33;68570.56;;;1.67;100.00
59757;BME280;45631;51.962;5.974;2024-03-08T00:58:01;68559.88;;;1.60;100.00
59757;BME280;45631;51.962;5.974;2024-03-08T01:00:30;68553.25;;;1.56;100.00
59757;BME280;45631;51.962;5.974;2024-03-08T01:02:58;68559.56;;;1.57;100.00
59757;BME280;45631;51.962;5.974;2024-03-08T01:05:27;68558.72;;;1.59;100.00
59757;BME280;45631;51.962;5.974;2024-03-08T01:07:55;68558.41;;;1.56;100.00
59757;BME280;45631;51.962;5.974;2024-03-08T01:10:25;68549.47;;;1.50;100.00
59757;BME280;45631;51.962;5.974;2024-03-08T01:12:53;68552.34;;;1.53;100.00
59757;BME280;45631;51.962;5.974;2024-03-08T01:15:26;68550.88;;;1.49;100.00
59757;BME280;45631;51.962;5.974;2024-03-08T01:17:55;68539.94;;;1.44;100.00
59757;BME280;45631;51.962;5.974;2024-03-08T01:20:23;68541.34;;;1.43;100.00
59757;BME280;45631;51.962;5.974;2024-03-08T01:22:53;68543.09;;;1.45;100.00
59757;BME280;45631;51.962;5.974;2024-03-08T01:25:21;68547.13;;;1.48;100.00
59757;BME280;45631;51.962;5.974;2024-03-08T01:27:51;68540.19;;;1.42;100.00
59757;BME280;45631;51.962;5.974;2024-03-08T01:30:20;68544.19;;;1.41;100.00
59757;BME280;45631;51.962;5.974;2024-03-08T01:32:48;68531.81;;;1.37;100.00
59757;BME280;45631;51.962;5.974;2024-03-08T01:35:17;68536.13;;;1.39;100.00
59757;BME280;45631;51.962;5.974;2024-03-08T01:37:45;68530.34;;;1.33;100.00
59757;BME280;45631;51.962;5.974;2024-03-08T01:40:14;68532.66;;;1.35;100.00
59757;BME280;45631;51.962;5.974;2024-03-08T01:42:46;68535.22;;;1.35;100.00
59757;BME280;45631;51.962;5.974;2024-03-08T01:45:16;68537.53;;;1.38;100.00
59757;BME280;45631;51.962;5.974;2024-03-08T01:47:44;68540.13;;;1.38;100.00
59757;BME280;45631;51.962;5.974;2024-03-08T01:50:15;68532.09;;;1.35;100.00
59757;BME280;45631;51.962;5.974;2024-03-08T01:52:44;68535.75;;;1.31;100.00
59757;BME280;45631;51.962;5.974;2024-03-08T01:55:12;68526.28;;;1.30;100.00
59757;BME280;45631;51.962;5.974;2024-03-08T01:57:43;68520.50;;;1.25;100.00
59757;BME280;45631;51.962;5.974;2024-03-08T02:00:12;68519.59;;;1.22;100.00
59757;BME280;45631;51.962;5.974;2024-03-08T02:02:43;68517.38;;;1.24;100.00
59757;BME280;45631;51.962;5.974;2024-03-08T02:05:14;68514.13;;;1.19;100.00
59757;BME280;45631;51.962;5.974;2024-03-08T02:07:43;68512.06;;;1.15;100.00
59757;BME280;45631;51.962;5.974;2024-03-08T02:10:12;68511.47;;;1.14;100.00
59757;BME280;45631;51.962;5.974;2024-03-08T02:12:40;68509.75;;;1.13;100.00
59757;BME280;45631;51.962;5.974;2024-03-08T02:15:09;68508.91;;;1.14;100.00
59757;BME280;45631;51.962;5.974;2024-03-08T02:17:38;68503.13;;;1.09;100.00
59757;BME280;45631;51.962;5.974;2024-03-08T02:20:09;68506.59;;;1.12;100.00
59757;BME280;45631;51.962;5.974;2024-03-08T02:22:42;68500.25;;;1.07;100.00
59757;BME280;45631;51.962;5.974;2024-03-08T02:25:11;68492.97;;;0.98;100.00
59757;BME280;45631;51.962;5.974;2024-03-08T02:27:39;68486.69;;;0.97;100.00
59757;BME280;45631;51.962;5.974;2024-03-08T02:30:09;68486.03;;;0.92;100.00
59757;BME280;45631;51.962;5.974;2024-03-08T02:32:42;68478.81;;;0.88;100.00
59757;BME280;45631;51.962;5.974;2024-03-08T02:35:11;68483.69;;;0.90;100.00
59757;BME280;45631;51.962;5.974;2024-03-08T02:37:42;68482.56;;;0.89;100.00
59757;BME280;45631;51.962;5.974;2024-03-08T02:40:11;68475.34;;;0.84;100.00
59757;BME280;45631;51.962;5.974;2024-03-08T02:42:40;68483.69;;;0.90;100.00
59757;BME280;45631;51.962;5.974;2024-03-08T02:45:09;68487.44;;;0.91;100.00
59757;BME280;45631;51.962;5.974;2024-03-08T02:47:38;68468.47;;;0.83;100.00
59757;BME280;45631;51.962;5.974;2024-03-08T02:50:09;68472.38;;;0.77;100.00
59757;BME280;45631;51.962;5.974;2024-03-08T02:52:38;68467.00;;;0.79;100.00
59757;BME280;45631;51.962;5.974;2024-03-08T02:55:10;68473.28;;;0.80;100.00
59757;BME280;45631;51.962;5.974;2024-03-08T02:57:42;68467.22;;;0.77;100.00
59757;BME280;45631;51.962;5.974;2024-03-08T03:00:11;68466.91;;;0.75;100.00
59757;BME280;45631;51.962;5.974;2024-03-08T03:02:42;68463.78;;;0.74;100.00
59757;BME280;45631;51.962;5.974;2024-03-08T03:05:11;68466.56;;;0.72;100.00
59757;BME280;45631;51.962;5.974;2024-03-08T03:07:39;68466.56;;;0.72;100.00
59757;BME280;45631;51.962;5.974;2024-03-08T03:10:09;68457.06;;;0.66;100.00
59757;BME280;45631;51.962;5.974;2024-03-08T03:12:39;68459.97;;;0.69;100.00
59757;BME280;45631;51.962;5.974;2024-03-08T03:15:08;68459.38;;;0.68;100.00
59757;BME280;45631;51.962;5.974;2024-03-08T03:17:37;68455.41;;;0.69;100.00
59757;BME280;45631;51.962;5.974;2024-03-08T03:20:07;68449.88;;;0.62;100.00
59757;BME280;45631;51.962;5.974;2024-03-08T03:22:40;68446.16;;;0.61;100.00
59757;BME280;45631;51.962;5.974;2024-03-08T03:25:10;68444.91;;;0.55;100.00
59757;BME280;45631;51.962;5.974;2024-03-08T03:27:39;68436.56;;;0.50;100.00
59757;BME280;45631;51.962;5.974;2024-03-08T03:30:10;68440.88;;;0.52;100.00
59757;BME280;45631;51.962;5.974;2024-03-08T03:32:49;68439.72;;;0.50;100.00
59757;BME280;45631;51.962;5.974;2024-03-08T03:35:18;68437.41;;;0.48;100.00
59757;BME280;45631;51.962;5.974;2024-03-08T03:37:48;68426.78;;;0.46;100.00
59757;BME280;45631;51.962;5.974;2024-03-08T03:40:30;68425.91;;;0.43;100.00
59757;BME280;45631;51.962;5.974;2024-03-08T03:42:58;68434.50;;;0.46;100.00
59757;BME280;45631;51.962;5.974;2024-03-08T03:45:26;68424.75;;;0.42;100.00
59757;BME280;45631;51.962;5.974;2024-03-08T03:47:55;68429.31;;;0.41;100.00
59757;BME280;45631;51.962;5.974;2024-03-08T03:50:25;68418.94;;;0.37;100.00
59757;BME280;45631;51.962;5.974;2024-03-08T03:52:54;68427.56;;;0.40;100.00
59757;BME280;45631;51.962;5.974;2024-03-08T03:55:22;68421.19;;;0.34;100.00
59757;BME280;45631;51.962;5.974;2024-03-08T03:57:52;68423.75;;;0.34;100.00
59757;BME280;45631;51.962;5.974;2024-03-08T04:00:21;68411.13;;;0.27;100.00
59757;BME280;45631;51.962;5.974;2024-03-08T04:02:49;68413.09;;;0.27;100.00
59757;BME280;45631;51.962;5.974;2024-03-08T04:05:18;68416.81;;;0.28;100.00
59757;BME280;45631;51.962;5.974;2024-03-08T04:07:49;68410.53;;;0.27;100.00
59757;BME280;45631;51.962;5.974;2024-03-08T04:10:17;68412.53;;;0.26;100.00
59757;BME280;45631;51.962;5.974;2024-03-08T04:12:46;68409.94;;;0.26;100.00
59757;BME280;45631;51.962;5.974;2024-03-08T04:15:16;68406.72;;;0.21;100.00
59757;BME280;45631;51.962;5.974;2024-03-08T04:17:44;68402.66;;;0.17;100.00
59757;BME280;45631;51.962;5.974;2024-03-08T04:20:13;68404.41;;;0.19;100.00
59757;BME280;45631;51.962;5.974;2024-03-08T04:22:42;68402.09;;;0.17;100.00
59757;BME280;45631;51.962;5.974;2024-03-08T04:25:11;68395.25;;;0.15;100.00
59757;BME280;45631;51.962;5.974;2024-03-08T04:27:40;68402.09;;;0.17;100.00
59757;BME280;45631;51.962;5.974;2024-03-08T04:30:09;68396.06;;;0.14;100.00
59757;BME280;45631;51.962;5.974;2024-03-08T04:32:40;68396.06;;;0.14;100.00
59757;BME280;45631;51.962;5.974;2024-03-08T04:35:10;68395.47;;;0.13;100.00
59757;BME280;45631;51.962;5.974;2024-03-08T04:37:40;68390.59;;;0.11;100.00
59757;BME280;45631;51.962;5.974;2024-03-08T04:40:11;68393.19;;;0.11;100.00
59757;BME280;45631;51.962;5.974;2024-03-08T04:42:40;68395.75;;;0.11;100.00
59757;BME280;45631;51.962;5.974;2024-03-08T04:45:09;68386.50;;;0.03;100.00
59757;BME280;45631;51.962;5.974;2024-03-08T04:47:39;68392.19;;;0.04;100.00
59757;BME280;45631;51.962;5.974;2024-03-08T04:50:08;68388.47;;;0.03;100.00
59757;BME280;45631;51.962;5.974;2024-03-08T04:52:38;68383.03;;;0.00;100.00
59757;BME280;45631;51.962;5.974;2024-03-08T04:55:06;68391.94;;;0.06;100.00
59757;BME280;45631;51.962;5.974;2024-03-08T04:57:34;68388.22;;;0.05;100.00
59757;BME280;45631;51.962;5.974;2024-03-08T05:00:04;68383.91;;;0.03;100.00
59757;BME280;45631;51.962;5.974;2024-03-08T05:02:39;68382.75;;;0.02;100.00
59757;BME280;45631;51.962;5.974;2024-03-08T05:05:08;68388.78;;;0.05;100.00
59757;BME280;45631;51.962;5.974;2024-03-08T05:07:39;68385.09;;;0.04;100.00
59757;BME280;45631;51.962;5.974;2024-03-08T05:10:07;68385.09;;;0.04;100.00
59757;BME280;45631;51.962;5.974;2024-03-08T05:12:36;68379.63;;;0.02;100.00
59757;BME280;45631;51.962;5.974;2024-03-08T05:15:06;68385.59;;;0.00;100.00
59757;BME280;45631;51.962;5.974;2024-03-08T05:17:35;68377.56;;;-0.03;100.00
59757;BME280;45631;51.962;5.974;2024-03-08T05:20:05;68383.25;;;-0.02;100.00
59757;BME280;45631;51.962;5.974;2024-03-08T05:22:35;68385.00;;;-0.01;100.00
59757;BME280;45631;51.962;5.974;2024-03-08T05:25:04;68383.25;;;-0.02;100.00
59757;BME280;45631;51.962;5.974;2024-03-08T05:27:34;68378.13;;;-0.02;100.00
59757;BME280;45631;51.962;5.974;2024-03-08T05:30:03;68378.97;;;-0.04;100.00
59757;BME280;45631;51.962;5.974;2024-03-08T05:32:32;68383.03;;;0.00;100.00
59757;BME280;45631;51.962;5.974;2024-03-08T05:35:05;68391.03;;;0.03;100.00
59757;BME280;45631;51.962;5.974;2024-03-08T05:37:34;68381.25;;;-0.02;100.00
59757;BME280;45631;51.962;5.974;2024-03-08T05:40:02;68374.91;;;-0.07;100.00
59757;BME280;45631;51.962;5.974;2024-03-08T05:42:41;68374.91;;;-0.07;100.00
59757;BME280;45631;51.962;5.974;2024-03-08T05:45:11;68376.13;;;-0.02;100.00
59757;BME280;45631;51.962;5.974;2024-03-08T05:47:39;68378.38;;;-0.04;100.00
59757;BME280;45631;51.962;5.974;2024-03-08T05:50:09;68372.94;;;-0.07;100.00
59757;BME280;45631;51.962;5.974;2024-03-08T05:52:38;68376.41;;;-0.04;100.00
59757;BME280;45631;51.962;5.974;2024-03-08T05:55:09;68369.13;;;-0.12;100.00
59757;BME280;45631;51.962;5.974;2024-03-08T05:57:37;68361.69;;;-0.14;100.00
59757;BME280;45631;51.962;5.974;2024-03-08T06:00:08;68364.25;;;-0.14;100.00
59757;BME280;45631;51.962;5.974;2024-03-08T06:02:38;68364.00;;;-0.12;100.00
59757;BME280;45631;51.962;5.974;2024-03-08T06:05:10;68365.66;;;-0.15;100.00
59757;BME280;45631;51.962;5.974;2024-03-08T06:07:39;68365.09;;;-0.16;100.00
59757;BME280;45631;51.962;5.974;2024-03-08T06:10:09;68370.03;;;-0.09;100.00
59757;BME280;45631;51.962;5.974;2024-03-08T06:12:39;68361.44;;;-0.12;100.00
59757;BME280;45631;51.962;5.974;2024-03-08T06:15:09;68368.31;;;-0.11;100.00
59757;BME280;45631;51.962;5.974;2024-03-08T06:17:41;68367.38;;;-0.14;100.00
59757;BME280;45631;51.962;5.974;2024-03-08T06:20:12;68362.19;;;-0.19;100.00
59757;BME280;45631;51.962;5.974;2024-03-08T06:22:41;68364.50;;;-0.17;100.00
59757;BME280;45631;51.962;5.974;2024-03-08T06:25:10;68368.22;;;-0.15;100.00
59757;BME280;45631;51.962;5.974;2024-03-08T06:27:41;68361.03;;;-0.20;100.00
59757;BME280;45631;51.962;5.974;2024-03-08T06:30:10;68361.94;;;-0.17;100.00
59757;BME280;45631;51.962;5.974;2024-03-08T06:32:39;68356.72;;;-0.21;100.00
59757;BME280;45631;51.962;5.974;2024-03-08T06:35:11;68359.63;;;-0.19;100.00
59757;BME280;45631;51.962;5.974;2024-03-08T06:37:40;68361.03;;;-0.20;100.00
59757;BME280;45631;51.962;5.974;2024-03-08T06:40:12;68353.00;;;-0.22;100.00
59757;BME280;45631;51.962;5.974;2024-03-08T06:42:41;68351.28;;;-0.24;100.00
59757;BME280;45631;51.962;5.974;2024-03-08T06:45:10;68356.16;;;-0.22;100.00
59757;BME280;45631;51.962;5.974;2024-03-08T06:47:40;68366.25;;;-0.15;100.00
59757;BME280;45631;51.962;5.974;2024-03-08T06:50:12;68363.91;;;-0.17;100.00
59757;BME280;45631;51.962;5.974;2024-03-08T06:52:42;68370.03;;;-0.09;100.00
59757;BME280;45631;51.962;5.974;2024-03-08T06:55:11;68371.44;;;-0.10;100.00
59757;BME280;45631;51.962;5.974;2024-03-08T06:57:40;68373.75;;;-0.08;100.00
59757;BME280;45631;51.962;5.974;2024-03-08T07:00:09;68374.06;;;-0.06;100.00
59757;BME280;45631;51.962;5.974;2024-03-08T07:02:41;68384.16;;;0.01;100.00
59757;BME280;45631;51.962;5.974;2024-03-08T07:05:14;68385.09;;;0.04;100.00
59757;BME280;45631;51.962;5.974;2024-03-08T07:07:43;68385.31;;;0.02;100.00
59757;BME280;45631;51.962;5.974;2024-03-08T07:10:11;68386.22;;;0.05;100.00
59757;BME280;45631;51.962;5.974;2024-03-08T07:12:45;68395.47;;;0.13;100.00
59757;BME280;45631;51.962;5.974;2024-03-08T07:15:13;68398.69;;;0.19;100.00
59757;BME280;45631;51.962;5.974;2024-03-08T07:17:42;68400.09;;;0.17;100.00
59757;BME280;45631;51.962;5.974;2024-03-08T07:20:13;68403.25;;;0.18;100.00
59757;BME280;45631;51.962;5.974;2024-03-08T07:22:45;68411.94;;;0.26;100.00
59757;BME280;45631;51.962;5.974;2024-03-08T07:25:17;68418.63;;;0.34;100.00
59757;BME280;45631;51.962;5.974;2024-03-08T07:27:51;68425.25;;;0.38;100.00
59757;BME280;45631;51.962;5.974;2024-03-08T07:30:20;68431.59;;;0.43;100.00
59757;BME280;45631;51.962;5.974;2024-03-08T07:33:05;68435.16;;;0.51;100.00
59757;BME280;45631;51.962;5.974;2024-03-08T07:35:36;68448.47;;;0.63;100.00
59757;BME280;45631;51.962;5.974;2024-03-08T07:38:05;68453.09;;;0.67;100.00
59757;BME280;45631;51.962;5.974;2024-03-08T07:40:35;68467.50;;;0.75;100.00
59757;BME280;45631;51.962;5.974;2024-03-08T07:43:05;68485.44;;;0.91;100.00
59757;BME280;45631;51.962;5.974;2024-03-08T07:45:33;68498.75;;;1.03;100.00
59757;BME280;45631;51.962;5.974;2024-03-08T07:48:03;68499.41;;;1.08;100.00
59757;BME280;45631;51.962;5.974;2024-03-08T07:50:38;68510.06;;;1.15;100.00
59757;BME280;45631;51.962;5.974;2024-03-08T07:53:08;68515.31;;;1.20;100.00
59757;BME280;45631;51.962;5.974;2024-03-08T07:55:36;68521.66;;;1.26;100.00
59757;BME280;45631;51.962;5.974;2024-03-08T07:58:06;68531.50;;;1.34;100.00
59757;BME280;45631;51.962;5.974;2024-03-08T08:00:37;68537.63;;;1.42;100.00
59757;BME280;45631;51.962;5.974;2024-03-08T08:03:06;68557.56;;;1.58;100.00
59757;BME280;45631;51.962;5.974;2024-03-08T08:05:35;68560.47;;;1.60;100.00
59757;BME280;45631;51.962;5.974;2024-03-08T08:08:07;68571.13;;;1.67;100.00
59757;BME280;45631;51.962;5.974;2024-03-08T08:10:40;68590.25;;;1.84;100.00
59757;BME280;45631;51.962;5.974;2024-03-08T08:13:09;68599.59;;;1.97;100.00
59757;BME280;45631;51.962;5.974;2024-03-08T08:15:38;68615.81;;;2.12;100.00
59757;BME280;45631;51.962;5.974;2024-03-08T08:18:09;68635.47;;;2.25;100.00
59757;BME280;45631;51.962;5.974;2024-03-08T08:20:37;68641.00;;;2.32;100.00
59757;BME280;45631;51.962;5.974;2024-03-08T08:23:06;68655.16;;;2.42;100.00
59757;BME280;45631;51.962;5.974;2024-03-08T08:25:35;68674.56;;;2.57;100.00
59757;BME280;45631;51.962;5.974;2024-03-08T08:28:05;68681.06;;;2.72;100.00
59757;BME280;45631;51.962;5.974;2024-03-08T08:30:33;68701.03;;;2.87;100.00
59757;BME280;45631;51.962;5.974;2024-03-08T08:33:01;68713.81;;;2.99;100.00
59757;BME280;45631;51.962;5.974;2024-03-08T08:35:32;68720.50;;;3.07;100.00
59757;BME280;45631;51.962;5.974;2024-03-08T08:38:00;68732.94;;;3.16;100.00
59757;BME280;45631;51.962;5.974;2024-03-08T08:40:32;68752.94;;;3.31;100.00
59757;BME280;45631;51.962;5.974;2024-03-08T08:43:00;68767.09;;;3.42;100.00
59757;BME280;45631;51.962;5.974;2024-03-08T08:45:31;68787.41;;;3.60;100.00
59757;BME280;45631;51.962;5.974;2024-03-08T08:48:00;68798.16;;;3.71;100.00
59757;BME280;45631;51.962;5.974;2024-03-08T08:50:28;68811.19;;;3.81;100.00
59757;BME280;45631;51.962;5.974;2024-03-08T08:52:56;68813.50;;;3.83;100.00
59757;BME280;45631;51.962;5.974;2024-03-08T08:55:25;68825.44;;;3.96;100.00
59757;BME280;45631;51.962;5.974;2024-03-08T08:57:55;68833.00;;;4.02;100.00
59757;BME280;45631;51.962;5.974;2024-03-08T09:00:23;68849.25;;;4.17;100.00
59757;BME280;45631;51.962;5.974;2024-03-08T09:02:55;68858.84;;;4.28;100.00
59757;BME280;45631;51.962;5.974;2024-03-08T09:05:25;68875.38;;;4.40;100.00
59757;BME280;45631;51.962;5.974;2024-03-08T09:07:54;68890.47;;;4.53;100.00
59757;BME280;45631;51.962;5.974;2024-03-08T09:10:23;68905.00;;;4.66;100.00
59757;BME280;45631;51.962;5.974;2024-03-08T09:12:58;68918.94;;;4.79;100.00
59757;BME280;45631;51.962;5.974;2024-03-08T09:15:27;68922.16;;;4.84;100.00
59757;BME280;45631;51.962;5.974;2024-03-08T09:17:56;68934.03;;;4.92;100.00
59757;BME280;45631;51.962;5.974;2024-03-08T09:20:26;68948.28;;;5.07;100.00
59757;BME280;45631;51.962;5.974;2024-03-08T09:22:54;68971.22;;;5.25;100.00
59757;BME280;45631;51.962;5.974;2024-03-08T09:25:22;68977.28;;;5.28;100.00
59757;BME280;45631;51.962;5.974;2024-03-08T09:27:52;68998.78;;;5.47;100.00
59757;BME280;45631;51.962;5.974;2024-03-08T09:30:22;69014.53;;;5.66;100.00
59757;BME280;45631;51.962;5.974;2024-03-08T09:32:51;69029.91;;;5.77;100.00
59757;BME280;45631;51.962;5.974;2024-03-08T09:35:20;69060.16;;;6.04;100.00
59757;BME280;45631;51.962;5.974;2024-03-08T09:37:49;69084.31;;;6.28;100.00
59757;BME280;45631;51.962;5.974;2024-03-08T09:40:18;69096.84;;;6.41;100.00
59757;BME280;45631;51.962;5.974;2024-03-08T09:42:48;69111.34;;;6.49;100.00
59757;BME280;45631;51.962;5.974;2024-03-08T09:45:16;69128.78;;;6.65;100.00
59757;BME280;45631;51.962;5.974;2024-03-08T09:47:47;69136.94;;;6.72;100.00
59757;BME280;45631;51.962;5.974;2024-03-08T09:50:16;69155.53;;;6.88;100.00
59757;BME280;45631;51.962;5.974;2024-03-08T09:52:47;69165.78;;;7.00;100.00
59757;BME280;45631;51.962;5.974;2024-03-08T09:55:17;69188.19;;;7.22;100.00
59757;BME280;45631;51.962;5.974;2024-03-08T09:57:51;69211.69;;;7.36;100.00
59757;BME280;45631;51.962;5.974;2024-03-08T10:00:37;69234.44;;;7.60;100.00
59757;BME280;45631;51.962;5.974;2024-03-08T10:03:07;69235.28;;;7.59;100.00
59757;BME280;45631;51.962;5.974;2024-03-08T10:05:37;69258.25;;;7.77;100.00
59757;BME280;45631;51.962;5.974;2024-03-08T10:08:06;69263.53;;;7.86;100.00
59757;BME280;45631;51.962;5.974;2024-03-08T10:10:35;69286.53;;;8.04;100.00
59757;BME280;45631;51.962;5.974;2024-03-08T10:13:06;69261.81;;;7.85;100.00
59757;BME280;45631;51.962;5.974;2024-03-08T10:15:34;69301.34;;;8.15;100.00
59757;BME280;45631;51.962;5.974;2024-03-08T10:18:03;69332.31;;;8.47;100.00
59757;BME280;45631;51.962;5.974;2024-03-08T10:20:33;69354.72;;;8.65;100.00
59757;BME280;45631;51.962;5.974;2024-03-08T10:23:02;69358.22;;;8.68;100.00
59757;BME280;45631;51.962;5.974;2024-03-08T10:25:37;69358.22;;;8.68;100.00
59757;BME280;45631;51.962;5.974;2024-03-08T10:28:06;69375.44;;;8.85;100.00
59757;BME280;45631;51.962;5.974;2024-03-08T10:30:35;69381.81;;;8.86;98.53
59757;BME280;45631;51.962;5.974;2024-03-08T10:33:04;69390.56;;;8.99;100.00
59757;BME280;45631;51.962;5.974;2024-03-08T10:35:35;69409.50;;;9.13;99.87
59757;BME280;45631;51.962;5.974;2024-03-08T10:38:05;69442.44;;;9.44;100.00
59757;BME280;45631;51.962;5.974;2024-03-08T10:40:35;69457.59;;;9.58;95.72
59757;BME280;45631;51.962;5.974;2024-03-08T10:43:14;69470.09;;;9.62;96.04
59757;BME280;45631;51.962;5.974;2024-03-08T10:45:47;69487.03;;;9.81;96.77
59757;BME280;45631;51.962;5.974;2024-03-08T10:48:27;69516.78;;;10.08;94.08
59757;BME280;45631;51.962;5.974;2024-03-08T10:51:05;69518.22;;;10.07;94.50
59757;BME280;45631;51.962;5.974;2024-03-08T10:53:36;69525.81;;;10.13;88.06
59757;BME280;45631;51.962;5.974;2024-03-08T10:56:08;69547.75;;;10.35;89.50
59757;BME280;45631;51.962;5.974;2024-03-08T10:58:37;69574.88;;;10.61;92.74
59757;BME280;45631;51.962;5.974;2024-03-08T11:01:06;69576.31;;;10.60;78.48
59757;BME280;45631;51.962;5.974;2024-03-08T11:03:48;69571.63;;;10.52;83.59
59757;BME280;45631;51.962;5.974;2024-03-08T11:06:30;69572.56;;;10.59;80.94
59757;BME280;45631;51.962;5.974;2024-03-08T11:09:01;69584.78;;;10.65;77.12
59757;BME280;45631;51.962;5.974;2024-03-08T11:11:30;69603.19;;;10.89;77.66
59757;BME280;45631;51.962;5.974;2024-03-08T11:14:01;69639.38;;;11.16;80.22
59757;BME280;45631;51.962;5.974;2024-03-08T11:16:39;69647.25;;;11.25;80.85
59757;BME280;45631;51.962;5.974;2024-03-08T11:19:26;69655.13;;;11.30;75.13
59757;BME280;45631;51.962;5.974;2024-03-08T11:22:03;69648.16;;;11.28;71.04
59757;BME280;45631;51.962;5.974;2024-03-08T11:24:38;69669.44;;;11.45;73.63
59757;BME280;45631;51.962;5.974;2024-03-08T11:27:10;69677.91;;;11.50;71.08
59757;BME280;45631;51.962;5.974;2024-03-08T11:29:39;69720.25;;;11.85;72.01
59757;BME280;45631;51.962;5.974;2024-03-08T11:32:08;69745.41;;;12.12;70.60
59757;BME280;45631;51.962;5.974;2024-03-08T11:34:37;69767.03;;;12.31;70.33
59757;BME280;45631;51.962;5.974;2024-03-08T11:37:13;69773.47;;;12.37;64.84
59757;BME280;45631;51.962;5.974;2024-03-08T11:39:47;69782.81;;;12.45;64.37
59757;BME280;45631;51.962;5.974;2024-03-08T11:42:18;69762.66;;;12.29;62.30
59757;BME280;45631;51.962;5.974;2024-03-08T11:44:47;69754.47;;;12.17;61.38
59757;BME280;45631;51.962;5.974;2024-03-08T11:47:15;69751.53;;;12.15;61.41
59757;BME280;45631;51.962;5.974;2024-03-08T11:49:44;69779.91;;;12.42;59.60
59757;BME280;45631;51.962;5.974;2024-03-08T11:52:18;69766.72;;;12.28;56.66
59757;BME280;45631;51.962;5.974;2024-03-08T11:54:53;69740.41;;;12.05;57.82
59757;BME280;45631;51.962;5.974;2024-03-08T11:57:25;69741.94;;;12.13;58.42
59757;BME280;45631;51.962;5.974;2024-03-08T11:59:56;69754.16;;;12.15;57.26
59757;BME280;45631;51.962;5.974;2024-03-08T12:02:25;69735.16;;;12.00;58.50
59757;BME280;45631;51.962;5.974;2024-03-08T12:04:58;69760.31;;;12.27;58.33
59757;BME280;45631;51.962;5.974;2024-03-08T12:07:30;69764.09;;;12.28;58.06
59757;BME280;45631;51.962;5.974;2024-03-08T12:10:15;69724.94;;;11.94;58.32
59757;BME280;45631;51.962;5.974;2024-03-08T12:12:45;69785.69;;;12.43;59.63
59757;BME280;45631;51.962;5.974;2024-03-08T12:15:15;69739.84;;;12.05;57.96
59757;BME280;45631;51.962;5.974;2024-03-08T12:17:45;69782.50;;;12.42;58.99
59757;BME280;45631;51.962;5.974;2024-03-08T12:20:16;69812.31;;;12.68;56.68
59757;BME280;45631;51.962;5.974;2024-03-08T12:22:49;69777.28;;;12.42;56.25
59757;BME280;45631;51.962;5.974;2024-03-08T12:25:17;69799.22;;;12.64;56.80
59757;BME280;45631;51.962;5.974;2024-03-08T12:27:47;69761.22;;;12.30;56.06
59757;BME280;45631;51.962;5.974;2024-03-08T12:30:20;69786.63;;;12.50;56.10
59757;BME280;45631;51.962;5.974;2024-03-08T12:32:55;69758.28;;;12.28;55.98
59757;BME280;45631;51.962;5.974;2024-03-08T12:35:26;69757.97;;;12.21;55.89
59757;BME280;45631;51.962;5.974;2024-03-08T12:37:57;69754.19;;;12.24;58.44
59757;BME280;45631;51.962;5.974;2024-03-08T12:40:27;69810.88;;;12.70;57.16
59757;BME280;45631;51.962;5.974;2024-03-08T12:42:56;69815.84;;;12.76;56.75
59757;BME280;45631;51.962;5.974;2024-03-08T12:45:24;69831.00;;;12.85;55.67
59757;BME280;45631;51.962;5.974;2024-03-08T12:47:53;69805.03;;;12.69;55.63
59757;BME280;45631;51.962;5.974;2024-03-08T12:50:23;69827.22;;;12.79;56.57
59757;BME280;45631;51.962;5.974;2024-03-08T12:52:52;69848.88;;;13.08;56.23
59757;BME280;45631;51.962;5.974;2024-03-08T12:55:24;69825.78;;;12.85;55.93
59757;BME280;45631;51.962;5.974;2024-03-08T12:57:53;69836.00;;;12.92;55.32
59757;BME280;45631;51.962;5.974;2024-03-08T13:00:23;69863.47;;;13.16;55.40
59757;BME280;45631;51.962;5.974;2024-03-08T13:02:53;69867.56;;;13.19;56.67
59757;BME280;45631;51.962;5.974;2024-03-08T13:05:22;69850.91;;;13.07;53.78
59757;BME280;45631;51.962;5.974;2024-03-08T13:07:50;69878.41;;;13.31;54.21
59757;BME280;45631;51.962;5.974;2024-03-08T13:10:20;69851.78;;;13.06;53.21
59757;BME280;45631;51.962;5.974;2024-03-08T13:12:51;69864.63;;;13.17;53.62
59757;BME280;45631;51.962;5.974;2024-03-08T13:15:20;69845.03;;;12.97;52.94